ADDS METAR Data INFO
IDs: Format: Raw Decoded Include TAF

Data at: 1808 UTC 18 Feb 2018

KPRC 181753Z 18012KT 10SM CLR 11/00 A2999 RMK AO2 SLP121 T01110000 10111 21011 58005
KPRC 181653Z 18009KT 10SM FEW026 09/01 A2999 RMK AO2 SLP124 T00890011
KPRC 181553Z 17003KT 10SM CLR 05/02 A3000 RMK AO2 SLP133 T00500022
KPRC 181453Z 20004KT 7SM CLR 01/M01 A3000 RMK AO2 SLP139 T00061006 55001
KPRC 181353Z 20005KT 10SM CLR M01/M03 A3000 RMK AO2 SLP135 T10111028
KPRC 181253Z 00000KT 10SM CLR 00/M02 A3000 RMK AO2 SLP131 T00001022
KPRC 181153Z AUTO 00000KT 10SM CLR 01/M03 A3001 RMK AO2 SLP125 T00061028 10044 20000 56014
KPRC 181053Z AUTO 22003KT 10SM CLR 01/M02 A3002 RMK AO2 SLP130 T00061017
KPRC 180953Z AUTO 19003KT 10SM CLR 01/M02 A3004 RMK AO2 SLP136 T00061017
KPRC 180853Z AUTO 19003KT 10SM CLR 01/M01 A3005 RMK AO2 SLP142 T00111011 56014
KPRC 180753Z AUTO 18003KT 10SM CLR 03/00 A3006 RMK AO2 SLP143 T00330000
KPRC 180653Z AUTO 19004KT 10SM CLR 02/M01 A3008 RMK AO2 SLP155 T00221006 401671022
KPRC 180553Z AUTO 00000KT 10SM CLR 04/01 A3010 RMK AO2 SLP163 T00390006 10156 20039 58009
KPRC 180453Z AUTO 20006KT 10SM CLR 06/01 A3012 RMK AO2 SLP171 T00610011
KPRC 180353Z 00000KT 10SM CLR 07/01 A3013 RMK AO2 SLP179 T00720006
KPRC 180253Z 16006KT 10SM CLR 08/01 A3013 RMK AO2 SLP186 T00830006 52004
KPRC 180153Z 21007KT 10SM CLR 11/M01 A3013 RMK AO2 SLP180 T01111006
KPRC 180053Z 00000KT 10SM CLR 13/M02 A3012 RMK AO2 SLP172 T01331017
KPRC 172353Z 07004KT 10SM CLR 16/M08 A3012 RMK AO2 SLP169 T01561078 10167 20100 56012
KPRC 172253Z AUTO 02004KT 10SM CLR 16/M09 A3013 RMK AO2 SLP172 T01611089
KPRC 172153Z 27003KT 10SM CLR 16/M09 A3014 RMK AO2 SLP172 T01611089
KPRC 172053Z VRB04KT 10SM CLR 16/M08 A3016 RMK AO2 SLP179 T01561078 58021
KPRC 171953Z VRB04KT 10SM CLR 14/M05 A3019 RMK AO2 SLP195 T01391050
KPRC 171853Z VRB05KT 10SM CLR 12/M03 A3022 RMK AO2 SLP205 T01171028
KPRC 171753Z 06005KT 10SM CLR 10/M01 A3023 RMK AO2 SLP208 T01001006 10100 21022 50006
KPRC 171653Z 00000KT 10SM CLR 07/00 A3023 RMK AO2 SLP213 T00670000
KPRC 171553Z 00000KT 10SM CLR 03/M02 A3024 RMK AO2 SLP218 T00331017
KPRC 171453Z 00000KT 10SM CLR M01/M03 A3021 RMK AO2 SLP216 T10111033 53003
KPRC 171353Z 19007KT 10SM CLR M01/M02 A3018 RMK AO2 SLP202 T10061022
KPRC 171253Z 20008KT 10SM CLR M01/M03 A3019 RMK AO2 SLP201 T10061028
KPRC 171153Z AUTO 20003KT 10SM CLR M02/M03 A3020 RMK AO2 SLP206 T10171033 10050 21017 53004
KPRC 171053Z AUTO 29003KT 10SM CLR M01/M03 A3020 RMK AO2 SLP206 T10111028
KPRC 170953Z AUTO 20006KT 10SM CLR 01/M02 A3017 RMK AO2 SLP193 T00061017
KPRC 170853Z AUTO 18003KT 10SM CLR 01/M02 A3019 RMK AO2 SLP199 T00111017 50003
KPRC 170753Z AUTO 18006KT 10SM CLR 01/M02 A3019 RMK AO2 SLP202 T00061017
KPRC 170653Z AUTO 00000KT 10SM CLR 03/M01 A3020 RMK AO2 SLP204 T00281006 401281022